EDT,Max TemperatureF,Mean TemperatureF,Min TemperatureF,Max Dew PointF,MeanDew PointF,Min DewpointF,Max Humidity, Mean Humidity, Min Humidity, Max Sea Level PressureIn, Mean Sea Level PressureIn, Min Sea Level PressureIn, Max VisibilityMiles, Mean VisibilityMiles, Min VisibilityMiles, Max Wind SpeedMPH, Mean Wind SpeedMPH, Max Gust SpeedMPH,PrecipitationIn, CloudCover, Events, WindDirDegrees
2013-5-1,57,50,43,46,44,40,93,83,62,30.50,30.46,30.38,10,10,10,9,4,,0.00,2,,64
2013-5-2,66,54,41,48,44,39,97,77,45,30.47,30.44,30.40,10,10,10,14,5,21,0.00,2,,39
2013-5-3,51,46,42,43,41,39,92,81,71,30.48,30.44,30.38,10,10,10,15,7,25,0.00,6,,35
2013-5-4,52,48,44,43,39,36,93,75,61,30.36,30.33,30.31,10,10,10,20,10,25,0.00,3,,43
2013-5-5,53,48,44,43,42,40,93,81,64,30.32,30.30,30.28,10,10,7,15,9,20,0.00,5,,70
2013-5-6,55,48,42,47,44,42,100,93,74,30.31,30.26,30.21,10,4,0,8,3,,0.00,5,Fog,112
2013-5-7,68,56,46,57,52,46,100,90,70,30.22,30.19,30.17,10,8,0,6,3,,0.00,5,Fog,110
2013-5-8,66,60,54,59,56,53,100,93,73,30.24,30.17,30.08,10,7,0,14,5,23,0.18,6,Fog-Rain,117
2013-5-9,64,58,51,61,56,52,100,95,82,30.06,29.98,29.92,10,4,0,9,4,16,0.21,7,Fog-Rain-Thunderstorm,186
2013-5-10,68,58,51,59,56,52,100,91,70,29.99,29.96,29.90,10,6,0,13,5,,0.00,4,Fog,219
2013-5-11,64,58,53,59,57,53,100,96,78,29.98,29.87,29.77,10,4,0,15,8,28,0.49,7,Fog-Rain,202
2013-5-12,61,56,54,58,55,36,100,94,51,29.81,29.69,29.63,10,4,0,10,8,22,0.19,6,Fog-Rain,217
2013-5-13,57,50,42,39,35,30,73,54,40,30.00,29.96,29.84,10,10,10,17,7,30,0.00,2,,245
2013-5-14,55,52,46,40,35,29,68,55,38,30.05,30.01,29.97,10,10,10,13,7,21,0.00,7,,312
2013-5-15,61,51,42,55,46,33,94,76,57,30.09,29.95,29.71,10,9,5,15,6,29,0.08,4,Rain,212
2013-5-16,70,61,53,55,52,47,100,75,53,29.79,29.72,29.68,10,8,4,14,8,29,0.00,1,,234
2013-5-17,64,56,48,47,43,40,86,61,44,30.23,30.02,29.79,10,10,10,15,6,23,0.00,0,,358
2013-5-18,64,55,46,53,49,44,97,78,60,30.33,30.30,30.24,10,10,10,12,4,20,0.00,0,,230
2013-5-19,66,59,52,54,51,49,93,76,56,30.38,30.34,30.29,10,10,8,12,6,18,0.06,2,Rain,219
2013-5-20,70,62,55,62,57,54,100,95,78,30.28,30.09,29.96,10,5,1,14,8,21,0.33,7,Rain-Thunderstorm,207
2013-5-21,64,60,55,61,58,55,100,95,83,29.99,29.95,29.90,10,3,0,9,3,17,0.00,7,Fog-Rain,190
2013-5-22,72,61,53,61,56,51,100,93,73,29.97,29.95,29.93,10,5,0,12,5,23,0.01,8,Fog,159
2013-5-23,66,63,60,63,62,60,100,96,87,29.99,29.96,29.91,8,4,1,15,11,26,0.19,8,Rain,216
2013-5-24,64,60,55,63,61,56,100,99,94,29.88,29.77,29.73,6,2,0,22,11,41,1.84,8,Fog-Rain,199
2013-5-25,57,50,45,56,50,43,100,94,77,29.73,29.70,29.67,10,5,1,10,5,23,0.17,8,Rain,325
2013-5-26,59,50,42,43,40,38,96,75,51,30.09,29.85,29.73,10,10,8,13,6,25,0.01,7,Rain,274
2013-5-27,71,58,46,50,42,35,77,60,30,30.19,30.13,30.10,10,10,10,13,5,22,0.00,0,,252
2013-5-28,66,55,46,57,51,44,100,82,50,30.27,30.24,30.19,10,10,6,8,3,,0.00,2,,199
2013-5-29,64,58,55,59,56,54,100,96,88,30.25,30.13,30.05,9,4,1,15,10,25,0.85,8,Rain-Thunderstorm,196
2013-5-30,77,68,60,65,61,59,100,88,69,30.10,30.08,30.05,9,6,2,10,7,20,0.13,2,Rain-Thunderstorm,226
2013-5-31,82,71,61,66,63,60,97,79,60,30.11,30.06,30.01,10,8,4,13,5,21,0.00,0,,224